This is the latest recevied weather packets stored in our database for station/object OK1VOF-13. If no packets are shown the sender has not sent any weather packets the latest 10 day(s).
| Time | Temp. | Humidity | Pressure | Rain* | Wind** | Luminosity | Snow |
|---|---|---|---|---|---|---|---|
| 1777731224 | 39.44° C | 8% | 1022.4 hPa | 0 mm | - | - | - |
| 1777730925 | 48.33° C | 3% | 1022.5 hPa | 0 mm | - | - | - |
| 1777730627 | 48.33° C | 4% | 1022.5 hPa | 0 mm | - | - | - |
| 1777730328 | 49.44° C | 4% | 1022.6 hPa | 0 mm | - | - | - |
| 1777730030 | 45.56° C | 4% | 1022.7 hPa | 0 mm | - | - | - |
| 1777729730 | 45° C | 5% | 1022.8 hPa | 0 mm | - | - | - |
| 1777729431 | 50° C | 3% | 1022.8 hPa | 0 mm | - | - | - |
| 1777729132 | 45.56° C | 4% | 1023 hPa | 0 mm | - | - | - |
| 1777728834 | 44.44° C | 4% | 1023 hPa | 0 mm | - | - | - |
| 1777728535 | 39.44° C | 7% | 1023 hPa | 0 mm | - | - | - |
| 1777728236 | 37.22° C | 9% | 1023 hPa | 0 mm | - | - | - |
| 1777727937 | 42.22° C | 7% | 1023.2 hPa | 0 mm | - | - | - |
| 1777727638 | 41.11° C | 7% | 1023.3 hPa | 0 mm | - | - | - |
| 1777727339 | 37.78° C | 9% | 1023.4 hPa | 0 mm | - | - | - |
| 1777727040 | 32.22° C | 12% | 1023.5 hPa | 0 mm | - | - | - |
| 1777726741 | 30.56° C | 12% | 1023.5 hPa | 0 mm | - | - | - |
| 1777726442 | 26.67° C | 13% | 1023.6 hPa | 0 mm | - | - | - |
| 1777726144 | 26.67° C | 16% | 1023.7 hPa | 0 mm | - | - | - |
| 1777725845 | 27.22° C | 17% | 1023.8 hPa | 0 mm | - | - | - |
| 1777725546 | 28.33° C | 16% | 1023.8 hPa | 0 mm | - | - | - |
| 1777725247 | 26.11° C | 18% | 1023.9 hPa | 0 mm | - | - | - |
| 1777724948 | 26.67° C | 17% | 1023.9 hPa | 0 mm | - | - | - |
| 1777724650 | 25.56° C | 18% | 1024 hPa | 0 mm | - | - | - |
| 1777724351 | 25.56° C | 18% | 1024.1 hPa | 0 mm | - | - | - |
| 1777724052 | 25° C | 19% | 1024.1 hPa | 0 mm | - | - | - |
* Rain latest hour (hover to see other rain measurements)
** Current wind speed in m/s (hover to see current wind gust speed)